Airport Name : Stokmarknes (Skagen)

Other Name : Stokmarknes

ICAO : ENSK

IATA : SKN

FAA :

Latitude : 68.349

Longitude : 15.0146

Country : Norway

Local Date and Time : 19 Jan 2021 15:37

 

TAF (Terminal Aerodrome Forecast)

 

METAR (METeorological Aerodrome Report)

ENSK 191420Z 04010KT CAVOK M02/M07 Q1005

ENSK 191350Z 04008KT CAVOK M02/M08 Q1005

ENSK 191320Z 04009KT CAVOK M02/M07 Q1005

ENSK 191250Z 06010KT CAVOK M02/M08 Q1005

ENSK 191150Z 05007KT CAVOK M02/M07 Q1005

ENSK 191120Z 06007KT CAVOK M02/M07 Q1005

ENSK 191050Z 05008KT CAVOK M02/M07 Q1005

To Charter a Jet Click here.